sensor_id;sensor_type;location;lat;lon;timestamp;temperature;humidity
53978;DHT22;39886;47.984;-1.586;2023-08-06T00:00:37;21.70;66.50
53978;DHT22;39886;47.984;-1.586;2023-08-06T00:03:03;21.70;66.50
53978;DHT22;39886;47.984;-1.586;2023-08-06T00:05:28;21.70;66.50
53978;DHT22;39886;47.984;-1.586;2023-08-06T00:07:54;21.70;66.50
53978;DHT22;39886;47.984;-1.586;2023-08-06T00:10:20;21.70;66.50
53978;DHT22;39886;47.984;-1.586;2023-08-06T00:12:45;21.70;66.60
53978;DHT22;39886;47.984;-1.586;2023-08-06T00:15:11;21.70;66.50
53978;DHT22;39886;47.984;-1.586;2023-08-06T00:17:37;21.70;66.60
53978;DHT22;39886;47.984;-1.586;2023-08-06T00:20:03;21.70;66.70
53978;DHT22;39886;47.984;-1.586;2023-08-06T00:22:32;21.70;66.60
53978;DHT22;39886;47.984;-1.586;2023-08-06T00:24:58;21.70;66.70
53978;DHT22;39886;47.984;-1.586;2023-08-06T00:27:23;21.70;66.70
53978;DHT22;39886;47.984;-1.586;2023-08-06T00:29:49;21.70;66.70
53978;DHT22;39886;47.984;-1.586;2023-08-06T00:32:14;21.60;66.60
53978;DHT22;39886;47.984;-1.586;2023-08-06T00:34:40;21.60;66.60
53978;DHT22;39886;47.984;-1.586;2023-08-06T00:37:06;21.60;66.70
53978;DHT22;39886;47.984;-1.586;2023-08-06T00:39:31;21.60;66.70
53978;DHT22;39886;47.984;-1.586;2023-08-06T00:41:57;21.60;66.70
53978;DHT22;39886;47.984;-1.586;2023-08-06T00:44:23;21.60;66.70
53978;DHT22;39886;47.984;-1.586;2023-08-06T00:46:49;21.60;66.70
53978;DHT22;39886;47.984;-1.586;2023-08-06T00:49:14;21.60;66.70
53978;DHT22;39886;47.984;-1.586;2023-08-06T00:51:40;21.60;66.70
53978;DHT22;39886;47.984;-1.586;2023-08-06T00:54:06;21.60;66.70
53978;DHT22;39886;47.984;-1.586;2023-08-06T00:56:32;21.60;66.80
53978;DHT22;39886;47.984;-1.586;2023-08-06T00:58:59;21.60;66.80
53978;DHT22;39886;47.984;-1.586;2023-08-06T01:01:25;21.60;66.80
53978;DHT22;39886;47.984;-1.586;2023-08-06T01:03:51;21.60;66.80
53978;DHT22;39886;47.984;-1.586;2023-08-06T01:06:18;21.50;66.70
53978;DHT22;39886;47.984;-1.586;2023-08-06T01:08:49;21.60;66.80
53978;DHT22;39886;47.984;-1.586;2023-08-06T01:11:21;21.50;66.80
53978;DHT22;39886;47.984;-1.586;2023-08-06T01:13:58;21.50;66.80
53978;DHT22;39886;47.984;-1.586;2023-08-06T01:16:25;21.50;66.80
53978;DHT22;39886;47.984;-1.586;2023-08-06T01:18:51;21.50;66.80
53978;DHT22;39886;47.984;-1.586;2023-08-06T01:21:17;21.50;66.80
53978;DHT22;39886;47.984;-1.586;2023-08-06T01:23:43;21.50;66.80
53978;DHT22;39886;47.984;-1.586;2023-08-06T01:31:20;21.50;66.90
53978;DHT22;39886;47.984;-1.586;2023-08-06T01:33:47;21.50;66.90
53978;DHT22;39886;47.984;-1.586;2023-08-06T01:36:14;21.50;66.90
53978;DHT22;39886;47.984;-1.586;2023-08-06T01:38:40;21.50;66.90
53978;DHT22;39886;47.984;-1.586;2023-08-06T01:41:06;21.50;66.90
53978;DHT22;39886;47.984;-1.586;2023-08-06T01:43:32;21.50;66.90
53978;DHT22;39886;47.984;-1.586;2023-08-06T01:45:57;21.40;66.90
53978;DHT22;39886;47.984;-1.586;2023-08-06T01:48:23;21.50;66.90
53978;DHT22;39886;47.984;-1.586;2023-08-06T01:50:48;21.40;66.90
53978;DHT22;39886;47.984;-1.586;2023-08-06T01:53:14;21.50;66.90
53978;DHT22;39886;47.984;-1.586;2023-08-06T01:55:39;21.50;67.00
53978;DHT22;39886;47.984;-1.586;2023-08-06T01:58:05;21.50;67.00
53978;DHT22;39886;47.984;-1.586;2023-08-06T02:00:31;21.40;66.90
53978;DHT22;39886;47.984;-1.586;2023-08-06T02:02:56;21.40;67.00
53978;DHT22;39886;47.984;-1.586;2023-08-06T02:05:22;21.40;66.90
53978;DHT22;39886;47.984;-1.586;2023-08-06T02:07:47;21.40;67.00
53978;DHT22;39886;47.984;-1.586;2023-08-06T02:10:13;21.40;67.00
53978;DHT22;39886;47.984;-1.586;2023-08-06T02:12:38;21.40;67.00
53978;DHT22;39886;47.984;-1.586;2023-08-06T02:15:04;21.40;67.00
53978;DHT22;39886;47.984;-1.586;2023-08-06T02:17:30;21.40;67.00
53978;DHT22;39886;47.984;-1.586;2023-08-06T02:19:55;21.40;67.00
53978;DHT22;39886;47.984;-1.586;2023-08-06T02:22:21;21.40;67.00
53978;DHT22;39886;47.984;-1.586;2023-08-06T02:24:49;21.40;67.00
53978;DHT22;39886;47.984;-1.586;2023-08-06T02:27:14;21.40;67.00
53978;DHT22;39886;47.984;-1.586;2023-08-06T02:29:40;21.40;67.00
53978;DHT22;39886;47.984;-1.586;2023-08-06T02:32:06;21.40;67.00
53978;DHT22;39886;47.984;-1.586;2023-08-06T02:34:32;21.40;67.00
53978;DHT22;39886;47.984;-1.586;2023-08-06T02:36:58;21.40;67.10
53978;DHT22;39886;47.984;-1.586;2023-08-06T02:39:23;21.40;67.10
53978;DHT22;39886;47.984;-1.586;2023-08-06T02:41:49;21.30;67.00
53978;DHT22;39886;47.984;-1.586;2023-08-06T02:44:14;21.40;67.10
53978;DHT22;39886;47.984;-1.586;2023-08-06T02:46:40;21.30;67.10
53978;DHT22;39886;47.984;-1.586;2023-08-06T02:49:06;21.30;67.00
53978;DHT22;39886;47.984;-1.586;2023-08-06T02:51:31;21.30;67.10
53978;DHT22;39886;47.984;-1.586;2023-08-06T02:53:57;21.30;67.10
53978;DHT22;39886;47.984;-1.586;2023-08-06T02:56:22;21.30;67.10
53978;DHT22;39886;47.984;-1.586;2023-08-06T02:58:48;21.30;67.10
53978;DHT22;39886;47.984;-1.586;2023-08-06T03:01:13;21.30;67.10
53978;DHT22;39886;47.984;-1.586;2023-08-06T03:03:39;21.30;67.20
53978;DHT22;39886;47.984;-1.586;2023-08-06T03:06:05;21.30;67.20
53978;DHT22;39886;47.984;-1.586;2023-08-06T03:08:30;21.30;67.20
53978;DHT22;39886;47.984;-1.586;2023-08-06T03:10:56;21.30;67.20
53978;DHT22;39886;47.984;-1.586;2023-08-06T03:13:21;21.20;67.10
53978;DHT22;39886;47.984;-1.586;2023-08-06T03:15:54;21.20;67.10
53978;DHT22;39886;47.984;-1.586;2023-08-06T03:18:19;21.20;67.10
53978;DHT22;39886;47.984;-1.586;2023-08-06T03:20:45;21.20;67.20
53978;DHT22;39886;47.984;-1.586;2023-08-06T03:23:11;21.20;67.20
53978;DHT22;39886;47.984;-1.586;2023-08-06T03:25:36;21.20;67.20
53978;DHT22;39886;47.984;-1.586;2023-08-06T03:28:02;21.20;67.20
53978;DHT22;39886;47.984;-1.586;2023-08-06T03:30:28;21.20;67.20
53978;DHT22;39886;47.984;-1.586;2023-08-06T03:32:53;21.20;67.20
53978;DHT22;39886;47.984;-1.586;2023-08-06T03:35:19;21.20;67.20
53978;DHT22;39886;47.984;-1.586;2023-08-06T03:37:44;21.20;67.30
53978;DHT22;39886;47.984;-1.586;2023-08-06T03:40:10;21.20;67.20
53978;DHT22;39886;47.984;-1.586;2023-08-06T03:42:36;21.20;67.20
53978;DHT22;39886;47.984;-1.586;2023-08-06T03:45:01;21.20;67.30
53978;DHT22;39886;47.984;-1.586;2023-08-06T03:47:27;21.10;67.20
53978;DHT22;39886;47.984;-1.586;2023-08-06T03:49:52;21.20;67.30
53978;DHT22;39886;47.984;-1.586;2023-08-06T03:52:18;21.10;67.20
53978;DHT22;39886;47.984;-1.586;2023-08-06T03:54:43;21.20;67.30
53978;DHT22;39886;47.984;-1.586;2023-08-06T03:57:09;21.20;67.30
53978;DHT22;39886;47.984;-1.586;2023-08-06T03:59:35;21.20;67.30
53978;DHT22;39886;47.984;-1.586;2023-08-06T04:02:01;21.20;67.30
53978;DHT22;39886;47.984;-1.586;2023-08-06T04:04:27;21.10;67.30
53978;DHT22;39886;47.984;-1.586;2023-08-06T04:06:52;21.10;67.30
53978;DHT22;39886;47.984;-1.586;2023-08-06T04:09:18;21.10;67.30
53978;DHT22;39886;47.984;-1.586;2023-08-06T04:11:44;21.10;67.30
53978;DHT22;39886;47.984;-1.586;2023-08-06T04:14:09;21.10;67.30
53978;DHT22;39886;47.984;-1.586;2023-08-06T04:16:35;21.10;67.30
53978;DHT22;39886;47.984;-1.586;2023-08-06T04:19:00;21.10;67.40
53978;DHT22;39886;47.984;-1.586;2023-08-06T04:21:26;21.10;67.40
53978;DHT22;39886;47.984;-1.586;2023-08-06T04:23:52;21.10;68.00
53978;DHT22;39886;47.984;-1.586;2023-08-06T04:26:17;21.10;67.40
53978;DHT22;39886;47.984;-1.586;2023-08-06T04:28:43;21.10;67.40
53978;DHT22;39886;47.984;-1.586;2023-08-06T04:31:08;21.10;67.30
53978;DHT22;39886;47.984;-1.586;2023-08-06T04:33:34;21.10;67.40
53978;DHT22;39886;47.984;-1.586;2023-08-06T04:35:59;21.10;67.40
53978;DHT22;39886;47.984;-1.586;2023-08-06T04:38:25;21.00;67.30
53978;DHT22;39886;47.984;-1.586;2023-08-06T04:40:51;21.00;67.30
53978;DHT22;39886;47.984;-1.586;2023-08-06T04:43:17;21.00;67.30
53978;DHT22;39886;47.984;-1.586;2023-08-06T04:45:48;21.10;67.40
53978;DHT22;39886;47.984;-1.586;2023-08-06T04:48:14;21.00;67.40
53978;DHT22;39886;47.984;-1.586;2023-08-06T04:50:44;21.10;67.40
53978;DHT22;39886;47.984;-1.586;2023-08-06T04:53:09;21.00;67.30
53978;DHT22;39886;47.984;-1.586;2023-08-06T04:55:35;21.00;67.30
53978;DHT22;39886;47.984;-1.586;2023-08-06T04:58:00;21.00;67.40
53978;DHT22;39886;47.984;-1.586;2023-08-06T05:00:26;21.00;67.40
53978;DHT22;39886;47.984;-1.586;2023-08-06T05:02:51;21.00;67.40
53978;DHT22;39886;47.984;-1.586;2023-08-06T05:05:17;21.00;67.40
53978;DHT22;39886;47.984;-1.586;2023-08-06T05:07:43;21.00;67.40
53978;DHT22;39886;47.984;-1.586;2023-08-06T05:10:08;21.00;67.40
53978;DHT22;39886;47.984;-1.586;2023-08-06T05:12:34;21.00;67.40
53978;DHT22;39886;47.984;-1.586;2023-08-06T05:14:59;21.00;67.40
53978;DHT22;39886;47.984;-1.586;2023-08-06T05:17:25;21.00;67.40
53978;DHT22;39886;47.984;-1.586;2023-08-06T05:19:51;21.00;67.40
53978;DHT22;39886;47.984;-1.586;2023-08-06T05:22:16;21.00;67.40
53978;DHT22;39886;47.984;-1.586;2023-08-06T05:24:42;21.00;67.40
53978;DHT22;39886;47.984;-1.586;2023-08-06T05:27:07;21.00;67.40
53978;DHT22;39886;47.984;-1.586;2023-08-06T05:29:33;21.00;67.40
53978;DHT22;39886;47.984;-1.586;2023-08-06T05:31:58;21.00;67.40
53978;DHT22;39886;47.984;-1.586;2023-08-06T05:34:24;21.00;67.50
53978;DHT22;39886;47.984;-1.586;2023-08-06T05:36:50;21.00;67.40
53978;DHT22;39886;47.984;-1.586;2023-08-06T05:39:15;21.00;67.40
53978;DHT22;39886;47.984;-1.586;2023-08-06T05:41:41;21.00;67.40
53978;DHT22;39886;47.984;-1.586;2023-08-06T05:44:07;21.00;67.40
53978;DHT22;39886;47.984;-1.586;2023-08-06T05:46:32;21.00;67.40
53978;DHT22;39886;47.984;-1.586;2023-08-06T05:48:58;21.00;67.40
53978;DHT22;39886;47.984;-1.586;2023-08-06T05:51:25;21.00;67.40
53978;DHT22;39886;47.984;-1.586;2023-08-06T05:53:51;21.00;67.40
53978;DHT22;39886;47.984;-1.586;2023-08-06T05:56:16;21.00;67.40
53978;DHT22;39886;47.984;-1.586;2023-08-06T05:58:42;21.00;67.30
53978;DHT22;39886;47.984;-1.586;2023-08-06T06:01:08;21.00;67.30
53978;DHT22;39886;47.984;-1.586;2023-08-06T06:03:33;21.00;67.30
53978;DHT22;39886;47.984;-1.586;2023-08-06T06:06:00;21.00;67.30
53978;DHT22;39886;47.984;-1.586;2023-08-06T06:08:26;21.10;67.30
53978;DHT22;39886;47.984;-1.586;2023-08-06T06:10:51;21.00;67.20
53978;DHT22;39886;47.984;-1.586;2023-08-06T06:13:17;21.10;67.20
53978;DHT22;39886;47.984;-1.586;2023-08-06T06:15:42;21.10;67.20
53978;DHT22;39886;47.984;-1.586;2023-08-06T06:18:08;21.10;67.20
53978;DHT22;39886;47.984;-1.586;2023-08-06T06:20:34;21.10;67.20
53978;DHT22;39886;47.984;-1.586;2023-08-06T06:22:59;21.10;67.20
53978;DHT22;39886;47.984;-1.586;2023-08-06T06:25:25;21.10;67.20
53978;DHT22;39886;47.984;-1.586;2023-08-06T06:27:50;21.10;67.20
53978;DHT22;39886;47.984;-1.586;2023-08-06T06:30:16;21.10;67.10
53978;DHT22;39886;47.984;-1.586;2023-08-06T06:32:42;21.20;67.20
53978;DHT22;39886;47.984;-1.586;2023-08-06T06:35:07;21.10;67.00
53978;DHT22;39886;47.984;-1.586;2023-08-06T06:37:33;21.20;67.10
53978;DHT22;39886;47.984;-1.586;2023-08-06T06:39:59;21.20;67.10
53978;DHT22;39886;47.984;-1.586;2023-08-06T06:42:24;21.20;67.00
53978;DHT22;39886;47.984;-1.586;2023-08-06T06:44:50;21.20;67.00
53978;DHT22;39886;47.984;-1.586;2023-08-06T06:47:15;21.20;67.00
53978;DHT22;39886;47.984;-1.586;2023-08-06T06:49:41;21.30;67.00
53978;DHT22;39886;47.984;-1.586;2023-08-06T06:52:06;21.30;67.00
53978;DHT22;39886;47.984;-1.586;2023-08-06T06:54:32;21.30;66.90
53978;DHT22;39886;47.984;-1.586;2023-08-06T06:56:58;21.30;66.90
53978;DHT22;39886;47.984;-1.586;2023-08-06T06:59:23;21.40;66.90
53978;DHT22;39886;47.984;-1.586;2023-08-06T07:01:49;21.40;66.90
53978;DHT22;39886;47.984;-1.586;2023-08-06T07:04:14;21.40;67.10
53978;DHT22;39886;47.984;-1.586;2023-08-06T07:06:40;21.40;66.90
53978;DHT22;39886;47.984;-1.586;2023-08-06T07:09:05;21.40;66.80
53978;DHT22;39886;47.984;-1.586;2023-08-06T07:11:31;21.40;66.80
53978;DHT22;39886;47.984;-1.586;2023-08-06T07:13:57;21.50;66.80
53978;DHT22;39886;47.984;-1.586;2023-08-06T07:16:25;21.50;66.80
53978;DHT22;39886;47.984;-1.586;2023-08-06T07:18:51;21.50;66.70
53978;DHT22;39886;47.984;-1.586;2023-08-06T07:21:18;21.50;66.60
53978;DHT22;39886;47.984;-1.586;2023-08-06T07:23:43;21.60;66.70
53978;DHT22;39886;47.984;-1.586;2023-08-06T07:26:09;21.60;66.70
53978;DHT22;39886;47.984;-1.586;2023-08-06T07:28:34;21.60;66.60
53978;DHT22;39886;47.984;-1.586;2023-08-06T07:31:00;21.70;66.50
53978;DHT22;39886;47.984;-1.586;2023-08-06T07:33:27;21.70;66.50
53978;DHT22;39886;47.984;-1.586;2023-08-06T07:35:53;21.70;66.40
53978;DHT22;39886;47.984;-1.586;2023-08-06T07:38:19;21.70;66.40
53978;DHT22;39886;47.984;-1.586;2023-08-06T07:40:45;21.80;66.40
53978;DHT22;39886;47.984;-1.586;2023-08-06T07:43:11;21.80;66.40
53978;DHT22;39886;47.984;-1.586;2023-08-06T07:45:37;21.80;66.20
53978;DHT22;39886;47.984;-1.586;2023-08-06T07:48:03;21.90;66.30
53978;DHT22;39886;47.984;-1.586;2023-08-06T07:50:28;21.90;66.20
53978;DHT22;39886;47.984;-1.586;2023-08-06T07:52:54;21.90;66.20
53978;DHT22;39886;47.984;-1.586;2023-08-06T07:55:20;22.00;66.20
53978;DHT22;39886;47.984;-1.586;2023-08-06T07:57:45;22.00;66.10
53978;DHT22;39886;47.984;-1.586;2023-08-06T08:00:11;22.00;66.00
53978;DHT22;39886;47.984;-1.586;2023-08-06T08:02:36;22.10;66.10
53978;DHT22;39886;47.984;-1.586;2023-08-06T08:05:02;22.10;65.90
53978;DHT22;39886;47.984;-1.586;2023-08-06T08:07:27;22.10;66.00
53978;DHT22;39886;47.984;-1.586;2023-08-06T08:09:56;22.10;65.90
53978;DHT22;39886;47.984;-1.586;2023-08-06T08:12:21;22.20;65.90
53978;DHT22;39886;47.984;-1.586;2023-08-06T08:14:47;22.20;65.90
53978;DHT22;39886;47.984;-1.586;2023-08-06T08:17:13;22.20;65.80
53978;DHT22;39886;47.984;-1.586;2023-08-06T08:19:39;22.20;65.70
53978;DHT22;39886;47.984;-1.586;2023-08-06T08:22:05;22.20;65.70
53978;DHT22;39886;47.984;-1.586;2023-08-06T08:24:31;22.20;65.70
53978;DHT22;39886;47.984;-1.586;2023-08-06T08:26:56;22.30;65.60
53978;DHT22;39886;47.984;-1.586;2023-08-06T08:29:22;22.30;65.50
53978;DHT22;39886;47.984;-1.586;2023-08-06T08:31:48;22.30;65.60
53978;DHT22;39886;47.984;-1.586;2023-08-06T08:34:17;22.30;65.40
53978;DHT22;39886;47.984;-1.586;2023-08-06T08:36:42;22.30;65.40
53978;DHT22;39886;47.984;-1.586;2023-08-06T08:39:08;22.30;66.10
53978;DHT22;39886;47.984;-1.586;2023-08-06T08:41:35;22.30;65.40
53978;DHT22;39886;47.984;-1.586;2023-08-06T08:44:01;22.40;65.20
53978;DHT22;39886;47.984;-1.586;2023-08-06T08:46:27;22.40;65.30
53978;DHT22;39886;47.984;-1.586;2023-08-06T08:48:54;22.40;65.10
53978;DHT22;39886;47.984;-1.586;2023-08-06T08:51:21;22.40;65.20
53978;DHT22;39886;47.984;-1.586;2023-08-06T08:53:47;22.40;65.10
53978;DHT22;39886;47.984;-1.586;2023-08-06T08:56:12;22.40;65.20
53978;DHT22;39886;47.984;-1.586;2023-08-06T08:58:39;22.40;65.20
53978;DHT22;39886;47.984;-1.586;2023-08-06T09:01:04;22.40;65.20
53978;DHT22;39886;47.984;-1.586;2023-08-06T09:03:31;22.50;65.20
53978;DHT22;39886;47.984;-1.586;2023-08-06T09:05:57;22.50;64.90
53978;DHT22;39886;47.984;-1.586;2023-08-06T09:08:24;22.60;65.00
53978;DHT22;39886;47.984;-1.586;2023-08-06T09:10:52;22.60;64.80
53978;DHT22;39886;47.984;-1.586;2023-08-06T09:13:18;22.60;64.70
53978;DHT22;39886;47.984;-1.586;2023-08-06T09:15:45;22.60;64.70
53978;DHT22;39886;47.984;-1.586;2023-08-06T09:18:11;22.70;65.40
53978;DHT22;39886;47.984;-1.586;2023-08-06T09:20:38;22.70;64.60
53978;DHT22;39886;47.984;-1.586;2023-08-06T09:23:07;22.70;64.50
53978;DHT22;39886;47.984;-1.586;2023-08-06T09:25:33;22.70;64.40
53978;DHT22;39886;47.984;-1.586;2023-08-06T09:27:59;22.70;64.40
53978;DHT22;39886;47.984;-1.586;2023-08-06T09:30:31;22.70;64.30
53978;DHT22;39886;47.984;-1.586;2023-08-06T09:32:57;22.70;64.40
53978;DHT22;39886;47.984;-1.586;2023-08-06T09:35:22;22.70;64.50
53978;DHT22;39886;47.984;-1.586;2023-08-06T09:37:48;22.80;64.50
53978;DHT22;39886;47.984;-1.586;2023-08-06T09:40:30;22.70;64.30
53978;DHT22;39886;47.984;-1.586;2023-08-06T09:42:56;22.80;64.40
53978;DHT22;39886;47.984;-1.586;2023-08-06T09:45:22;22.80;64.40
53978;DHT22;39886;47.984;-1.586;2023-08-06T09:47:48;22.80;64.90
53978;DHT22;39886;47.984;-1.586;2023-08-06T09:50:15;22.80;64.10
53978;DHT22;39886;47.984;-1.586;2023-08-06T09:52:41;22.80;64.20
53978;DHT22;39886;47.984;-1.586;2023-08-06T09:55:07;22.80;64.10
53978;DHT22;39886;47.984;-1.586;2023-08-06T09:57:33;22.80;64.00
53978;DHT22;39886;47.984;-1.586;2023-08-06T09:59:58;22.90;64.10
53978;DHT22;39886;47.984;-1.586;2023-08-06T10:02:24;22.90;64.10
53978;DHT22;39886;47.984;-1.586;2023-08-06T10:04:51;22.90;64.00
53978;DHT22;39886;47.984;-1.586;2023-08-06T10:07:18;22.90;63.90
53978;DHT22;39886;47.984;-1.586;2023-08-06T10:09:44;22.90;63.90
53978;DHT22;39886;47.984;-1.586;2023-08-06T10:12:09;22.90;64.00
53978;DHT22;39886;47.984;-1.586;2023-08-06T10:14:35;22.90;64.00
53978;DHT22;39886;47.984;-1.586;2023-08-06T10:17:02;22.90;64.00
53978;DHT22;39886;47.984;-1.586;2023-08-06T10:19:28;22.90;63.90
53978;DHT22;39886;47.984;-1.586;2023-08-06T10:27:40;22.90;63.90
53978;DHT22;39886;47.984;-1.586;2023-08-06T10:30:25;22.90;63.80
53978;DHT22;39886;47.984;-1.586;2023-08-06T10:32:55;22.90;63.80
53978;DHT22;39886;47.984;-1.586;2023-08-06T10:35:35;23.00;63.90
53978;DHT22;39886;47.984;-1.586;2023-08-06T10:38:11;22.90;63.90
53978;DHT22;39886;47.984;-1.586;2023-08-06T10:40:39;23.00;63.80
53978;DHT22;39886;47.984;-1.586;2023-08-06T10:43:05;23.00;63.70
53978;DHT22;39886;47.984;-1.586;2023-08-06T10:45:36;23.00;63.70
53978;DHT22;39886;47.984;-1.586;2023-08-06T10:48:01;23.00;63.70
53978;DHT22;39886;47.984;-1.586;2023-08-06T10:50:27;23.00;63.60
53978;DHT22;39886;47.984;-1.586;2023-08-06T10:52:53;23.00;63.50
53978;DHT22;39886;47.984;-1.586;2023-08-06T10:55:25;23.10;63.60
53978;DHT22;39886;47.984;-1.586;2023-08-06T10:57:51;23.10;63.60
53978;DHT22;39886;47.984;-1.586;2023-08-06T11:00:17;23.10;63.50
53978;DHT22;39886;47.984;-1.586;2023-08-06T11:02:43;23.10;63.50
53978;DHT22;39886;47.984;-1.586;2023-08-06T11:05:11;23.10;63.50
53978;DHT22;39886;47.984;-1.586;2023-08-06T11:07:37;23.10;63.40
53978;DHT22;39886;47.984;-1.586;2023-08-06T11:10:21;23.10;63.40
53978;DHT22;39886;47.984;-1.586;2023-08-06T11:12:46;23.10;63.40
53978;DHT22;39886;47.984;-1.586;2023-08-06T11:15:12;23.10;63.30
53978;DHT22;39886;47.984;-1.586;2023-08-06T11:17:39;23.10;63.30
53978;DHT22;39886;47.984;-1.586;2023-08-06T11:20:05;23.10;63.30
53978;DHT22;39886;47.984;-1.586;2023-08-06T11:22:31;23.10;63.30
53978;DHT22;39886;47.984;-1.586;2023-08-06T11:24:56;23.10;63.30
53978;DHT22;39886;47.984;-1.586;2023-08-06T11:27:22;23.10;63.10
53978;DHT22;39886;47.984;-1.586;2023-08-06T11:29:47;23.10;63.20
53978;DHT22;39886;47.984;-1.586;2023-08-06T11:32:13;23.10;63.10
53978;DHT22;39886;47.984;-1.586;2023-08-06T11:34:39;23.20;63.10
53978;DHT22;39886;47.984;-1.586;2023-08-06T11:37:05;23.10;63.20
53978;DHT22;39886;47.984;-1.586;2023-08-06T11:39:35;23.20;63.20
53978;DHT22;39886;47.984;-1.586;2023-08-06T11:42:05;23.10;63.10
53978;DHT22;39886;47.984;-1.586;2023-08-06T11:44:31;23.20;63.20
53978;DHT22;39886;47.984;-1.586;2023-08-06T11:46:58;23.20;63.20
53978;DHT22;39886;47.984;-1.586;2023-08-06T11:49:43;23.20;63.10
53978;DHT22;39886;47.984;-1.586;2023-08-06T11:52:10;23.20;63.10
53978;DHT22;39886;47.984;-1.586;2023-08-06T11:54:37;23.20;63.10
53978;DHT22;39886;47.984;-1.586;2023-08-06T11:57:04;23.20;63.00
53978;DHT22;39886;47.984;-1.586;2023-08-06T11:59:30;23.20;62.90
53978;DHT22;39886;47.984;-1.586;2023-08-06T12:01:56;23.20;63.00
53978;DHT22;39886;47.984;-1.586;2023-08-06T12:04:21;23.20;62.80
53978;DHT22;39886;47.984;-1.586;2023-08-06T12:06:47;23.20;62.90
53978;DHT22;39886;47.984;-1.586;2023-08-06T12:09:12;23.20;62.90
53978;DHT22;39886;47.984;-1.586;2023-08-06T12:11:38;23.20;62.90
53978;DHT22;39886;47.984;-1.586;2023-08-06T12:14:03;23.20;62.90
53978;DHT22;39886;47.984;-1.586;2023-08-06T12:16:29;23.20;62.90
53978;DHT22;39886;47.984;-1.586;2023-08-06T12:18:54;23.20;62.70
53978;DHT22;39886;47.984;-1.586;2023-08-06T12:21:20;23.20;62.80
53978;DHT22;39886;47.984;-1.586;2023-08-06T12:23:45;23.30;62.60
53978;DHT22;39886;47.984;-1.586;2023-08-06T12:26:11;23.30;62.50
53978;DHT22;39886;47.984;-1.586;2023-08-06T12:28:37;23.30;62.50
53978;DHT22;39886;47.984;-1.586;2023-08-06T12:31:02;23.30;62.70
53978;DHT22;39886;47.984;-1.586;2023-08-06T12:33:28;23.30;62.60
53978;DHT22;39886;47.984;-1.586;2023-08-06T12:35:53;23.30;62.50
53978;DHT22;39886;47.984;-1.586;2023-08-06T12:38:20;23.30;62.50
53978;DHT22;39886;47.984;-1.586;2023-08-06T12:40:45;23.30;62.50
53978;DHT22;39886;47.984;-1.586;2023-08-06T12:43:11;23.30;62.40
53978;DHT22;39886;47.984;-1.586;2023-08-06T12:45:36;23.30;62.30
53978;DHT22;39886;47.984;-1.586;2023-08-06T12:48:02;23.30;62.50
53978;DHT22;39886;47.984;-1.586;2023-08-06T12:50:28;23.30;62.40
53978;DHT22;39886;47.984;-1.586;2023-08-06T12:52:54;23.30;62.40
53978;DHT22;39886;47.984;-1.586;2023-08-06T12:55:20;23.30;62.40
53978;DHT22;39886;47.984;-1.586;2023-08-06T12:57:45;23.30;62.50
53978;DHT22;39886;47.984;-1.586;2023-08-06T13:00:11;23.30;62.40
53978;DHT22;39886;47.984;-1.586;2023-08-06T13:02:37;23.30;62.30
53978;DHT22;39886;47.984;-1.586;2023-08-06T13:05:03;23.30;62.30
53978;DHT22;39886;47.984;-1.586;2023-08-06T13:07:31;23.30;62.20
53978;DHT22;39886;47.984;-1.586;2023-08-06T13:09:56;23.40;62.20
53978;DHT22;39886;47.984;-1.586;2023-08-06T13:12:22;23.40;62.10
53978;DHT22;39886;47.984;-1.586;2023-08-06T13:14:48;23.40;62.10
53978;DHT22;39886;47.984;-1.586;2023-08-06T13:17:14;23.40;62.10
53978;DHT22;39886;47.984;-1.586;2023-08-06T13:19:39;23.30;62.10
53978;DHT22;39886;47.984;-1.586;2023-08-06T13:22:05;23.40;62.20
53978;DHT22;39886;47.984;-1.586;2023-08-06T13:24:32;23.40;62.10
53978;DHT22;39886;47.984;-1.586;2023-08-06T13:26:58;23.40;62.10
53978;DHT22;39886;47.984;-1.586;2023-08-06T13:29:24;23.40;61.90
53978;DHT22;39886;47.984;-1.586;2023-08-06T13:31:50;23.40;61.80
53978;DHT22;39886;47.984;-1.586;2023-08-06T13:34:15;23.50;61.90
53978;DHT22;39886;47.984;-1.586;2023-08-06T13:36:42;23.50;61.90
53978;DHT22;39886;47.984;-1.586;2023-08-06T13:39:07;23.50;61.90
53978;DHT22;39886;47.984;-1.586;2023-08-06T13:41:33;23.50;62.10
53978;DHT22;39886;47.984;-1.586;2023-08-06T13:43:59;23.40;62.00
53978;DHT22;39886;47.984;-1.586;2023-08-06T13:46:24;23.40;62.00
53978;DHT22;39886;47.984;-1.586;2023-08-06T13:48:50;23.40;62.00
53978;DHT22;39886;47.984;-1.586;2023-08-06T13:51:18;23.40;62.00
53978;DHT22;39886;47.984;-1.586;2023-08-06T13:53:44;23.40;62.10
53978;DHT22;39886;47.984;-1.586;2023-08-06T13:56:09;23.40;62.00
53978;DHT22;39886;47.984;-1.586;2023-08-06T13:58:36;23.50;62.00
53978;DHT22;39886;47.984;-1.586;2023-08-06T14:01:02;23.50;61.90
53978;DHT22;39886;47.984;-1.586;2023-08-06T14:03:28;23.50;61.90
53978;DHT22;39886;47.984;-1.586;2023-08-06T14:05:53;23.50;61.80
53978;DHT22;39886;47.984;-1.586;2023-08-06T14:08:22;23.50;61.90
53978;DHT22;39886;47.984;-1.586;2023-08-06T14:10:48;23.50;61.80
53978;DHT22;39886;47.984;-1.586;2023-08-06T14:13:14;23.50;62.00
53978;DHT22;39886;47.984;-1.586;2023-08-06T14:15:39;23.50;62.00
53978;DHT22;39886;47.984;-1.586;2023-08-06T14:18:06;23.50;62.10
53978;DHT22;39886;47.984;-1.586;2023-08-06T14:20:33;23.50;62.20
53978;DHT22;39886;47.984;-1.586;2023-08-06T14:22:59;23.50;62.20
53978;DHT22;39886;47.984;-1.586;2023-08-06T14:25:25;23.60;61.90
53978;DHT22;39886;47.984;-1.586;2023-08-06T14:27:50;23.60;61.70
53978;DHT22;39886;47.984;-1.586;2023-08-06T14:30:16;23.60;61.80
53978;DHT22;39886;47.984;-1.586;2023-08-06T14:32:41;23.60;61.90
53978;DHT22;39886;47.984;-1.586;2023-08-06T14:35:07;23.50;62.00
53978;DHT22;39886;47.984;-1.586;2023-08-06T14:37:33;23.50;62.00
53978;DHT22;39886;47.984;-1.586;2023-08-06T14:39:58;23.60;61.80
53978;DHT22;39886;47.984;-1.586;2023-08-06T14:42:24;23.90;61.50
53978;DHT22;39886;47.984;-1.586;2023-08-06T14:44:49;24.50;59.70
53978;DHT22;39886;47.984;-1.586;2023-08-06T14:47:15;24.40;59.70
53978;DHT22;39886;47.984;-1.586;2023-08-06T14:49:41;24.10;60.30
53978;DHT22;39886;47.984;-1.586;2023-08-06T14:52:06;24.00;60.80
53978;DHT22;39886;47.984;-1.586;2023-08-06T14:54:32;23.90;61.00
53978;DHT22;39886;47.984;-1.586;2023-08-06T14:56:57;23.90;61.30
53978;DHT22;39886;47.984;-1.586;2023-08-06T14:59:23;23.80;61.40
53978;DHT22;39886;47.984;-1.586;2023-08-06T15:01:49;23.80;61.50
53978;DHT22;39886;47.984;-1.586;2023-08-06T15:04:16;23.80;61.60
53978;DHT22;39886;47.984;-1.586;2023-08-06T15:06:42;23.80;61.60
53978;DHT22;39886;47.984;-1.586;2023-08-06T15:09:07;23.80;61.60
53978;DHT22;39886;47.984;-1.586;2023-08-06T15:11:33;23.70;62.20
53978;DHT22;39886;47.984;-1.586;2023-08-06T15:13:58;23.70;61.50
53978;DHT22;39886;47.984;-1.586;2023-08-06T15:16:26;23.70;61.50
53978;DHT22;39886;47.984;-1.586;2023-08-06T15:18:52;23.70;61.40